createdAt,value
2018-08-11T00:02:03.244Z,51.70
2018-08-11T00:04:37.462Z,52.60
2018-08-11T00:07:16.144Z,53.30
2018-08-11T00:09:50.188Z,52.20
2018-08-11T00:12:24.155Z,52.50
2018-08-11T00:14:58.631Z,52.50
2018-08-11T00:17:32.955Z,53.40
2018-08-11T00:20:09.624Z,52.20
2018-08-11T00:22:43.794Z,52.30
2018-08-11T00:25:18.210Z,53.00
2018-08-11T00:27:52.221Z,52.70
2018-08-11T00:30:26.436Z,53.20
2018-08-11T00:33:00.746Z,53.30
2018-08-11T00:35:34.824Z,53.80
2018-08-11T00:38:09.384Z,54.00
2018-08-11T00:40:43.312Z,54.40
2018-08-11T00:43:17.690Z,53.50
2018-08-11T00:45:51.901Z,53.60
2018-08-11T00:48:30.327Z,53.60
2018-08-11T00:51:05.036Z,53.70
2018-08-11T00:53:38.775Z,53.40
2018-08-11T00:56:12.840Z,53.50
2018-08-11T00:58:46.696Z,54.40
2018-08-11T01:01:20.794Z,54.40
2018-08-11T01:03:54.862Z,55.00
2018-08-11T01:06:29.016Z,54.10
2018-08-11T01:09:04.859Z,55.20
2018-08-11T01:11:39.080Z,55.80
2018-08-11T01:14:12.960Z,54.70
2018-08-11T01:16:48.340Z,54.80
2018-08-11T01:19:22.434Z,54.60
2018-08-11T01:21:56.397Z,54.70
2018-08-11T01:24:30.326Z,55.30
2018-08-11T01:27:04.491Z,54.90
2018-08-11T01:29:38.404Z,55.30
2018-08-11T01:32:12.864Z,55.10
2018-08-11T01:34:46.996Z,55.60
2018-08-11T01:37:20.889Z,55.70
2018-08-11T01:39:54.990Z,55.90
2018-08-11T01:42:29.034Z,56.00
2018-08-11T01:45:03.251Z,55.50
2018-08-11T01:47:38.472Z,55.90
2018-08-11T01:50:14.124Z,56.30
2018-08-11T01:52:48.408Z,56.10
2018-08-11T01:55:22.335Z,56.20
2018-08-11T01:57:56.479Z,55.90
2018-08-11T02:00:30.705Z,55.80
2018-08-11T02:03:04.867Z,56.00
2018-08-11T02:05:39.115Z,55.80
2018-08-11T02:08:13.415Z,56.00
2018-08-11T02:10:47.391Z,56.50
2018-08-11T02:13:21.337Z,56.30
2018-08-11T02:15:55.219Z,56.40
2018-08-11T02:18:29.451Z,56.60
2018-08-11T02:21:03.364Z,56.90
2018-08-11T02:23:37.620Z,56.70
2018-08-11T02:26:11.497Z,56.30
2018-08-11T02:28:45.675Z,57.00
2018-08-11T02:31:19.730Z,57.30
2018-08-11T02:33:54.371Z,56.90
2018-08-11T02:36:28.170Z,56.80
2018-08-11T02:39:02.133Z,57.20
2018-08-11T02:41:36.058Z,57.60
2018-08-11T02:44:10.410Z,57.50
2018-08-11T02:46:44.894Z,57.90
2018-08-11T02:49:18.840Z,57.90
2018-08-11T02:51:53.023Z,57.70
2018-08-11T02:54:27.139Z,57.90
2018-08-11T02:57:01.284Z,58.10
2018-08-11T02:59:35.769Z,58.80
2018-08-11T03:02:09.964Z,59.10
2018-08-11T03:04:44.276Z,59.90
2018-08-11T03:07:18.387Z,61.70
2018-08-11T03:09:52.360Z,65.10
2018-08-11T03:12:26.190Z,66.20
2018-08-11T03:15:00.375Z,66.70
2018-08-11T03:17:34.433Z,67.50
2018-08-11T03:20:11.314Z,68.60
2018-08-11T03:22:45.899Z,70.90
2018-08-11T03:25:19.961Z,76.00
2018-08-11T03:27:53.840Z,79.30
2018-08-11T03:30:27.674Z,82.20
2018-08-11T03:33:01.556Z,83.10
2018-08-11T03:35:35.538Z,85.80
2018-08-11T03:38:09.618Z,85.40
2018-08-11T03:40:43.700Z,86.70
2018-08-11T03:43:17.568Z,85.50
2018-08-11T03:45:51.515Z,85.70
2018-08-11T03:48:29.980Z,86.60
2018-08-11T03:51:04.199Z,87.70
2018-08-11T03:53:38.133Z,88.70
2018-08-11T03:56:11.895Z,89.50
2018-08-11T03:58:46.061Z,87.50
2018-08-11T04:01:19.964Z,87.50
2018-08-11T04:03:54.081Z,90.20
2018-08-11T04:06:28.012Z,90.60
2018-08-11T04:09:01.944Z,90.20
2018-08-11T04:11:35.768Z,90.70
2018-08-11T04:14:09.555Z,91.60
2018-08-11T04:16:43.475Z,92.20
2018-08-11T04:19:17.758Z,92.40
2018-08-11T04:21:51.987Z,93.00
2018-08-11T04:24:25.928Z,92.90
2018-08-11T04:27:00.060Z,93.50
2018-08-11T04:29:34.021Z,92.90
2018-08-11T04:32:08.195Z,93.80
2018-08-11T04:34:42.334Z,93.60
2018-08-11T04:37:16.513Z,94.40
2018-08-11T04:39:50.726Z,94.80
2018-08-11T04:42:24.528Z,95.20
2018-08-11T04:44:58.540Z,95.30
2018-08-11T04:47:32.818Z,95.10
2018-08-11T04:50:06.863Z,94.40
2018-08-11T04:52:40.788Z,94.80
2018-08-11T04:55:15.723Z,95.50
2018-08-11T04:57:49.764Z,95.00
2018-08-11T05:00:23.905Z,95.20
2018-08-11T05:02:57.995Z,94.70
2018-08-11T05:05:31.999Z,95.20
2018-08-11T05:08:05.886Z,94.80
2018-08-11T05:10:40.054Z,95.20
2018-08-11T05:13:14.275Z,95.30
2018-08-11T05:15:48.341Z,94.90
2018-08-11T05:18:22.466Z,95.20
2018-08-11T05:20:56.424Z,95.00
2018-08-11T05:23:30.490Z,95.00
2018-08-11T05:26:04.625Z,95.10
2018-08-11T05:28:38.549Z,95.00
2018-08-11T05:31:12.489Z,95.20
2018-08-11T05:33:46.575Z,95.20
2018-08-11T05:36:20.530Z,95.30
2018-08-11T05:38:54.939Z,95.30
2018-08-11T05:41:28.831Z,95.40
2018-08-11T05:44:02.731Z,94.70
2018-08-11T05:46:36.964Z,94.40
2018-08-11T05:49:10.865Z,94.80
2018-08-11T05:51:44.845Z,95.10
2018-08-11T05:54:19.133Z,94.70
2018-08-11T05:56:53.058Z,94.30
2018-08-11T05:59:26.974Z,94.50
2018-08-11T06:02:00.934Z,94.20
2018-08-11T06:04:34.900Z,94.10
2018-08-11T06:07:08.900Z,93.80
2018-08-11T06:09:42.738Z,93.60
2018-08-11T06:12:16.710Z,93.30
2018-08-11T06:14:50.566Z,93.20
2018-08-11T06:17:24.691Z,93.20
2018-08-11T06:19:59.081Z,93.40
2018-08-11T06:22:33.923Z,93.60
2018-08-11T06:25:09.544Z,93.00
2018-08-11T06:27:43.570Z,92.80
2018-08-11T06:30:17.832Z,92.40
2018-08-11T06:32:51.944Z,92.00
2018-08-11T06:35:25.958Z,91.50
2018-08-11T06:38:00.416Z,91.00
2018-08-11T06:40:34.435Z,91.30
2018-08-11T06:43:08.593Z,91.10
2018-08-11T06:45:42.553Z,90.00
2018-08-11T06:48:16.866Z,87.50
2018-08-11T06:50:50.709Z,86.50
2018-08-11T06:53:25.392Z,86.80
2018-08-11T06:55:59.305Z,86.60
2018-08-11T06:58:33.149Z,85.90
2018-08-11T07:01:07.154Z,86.60
2018-08-11T07:03:41.304Z,86.10
2018-08-11T07:06:15.276Z,85.10
2018-08-11T07:08:49.385Z,84.90
2018-08-11T07:11:23.445Z,84.80
2018-08-11T07:13:57.557Z,85.40
2018-08-11T07:16:31.674Z,84.80
2018-08-11T07:19:05.743Z,83.90
2018-08-11T07:21:39.727Z,84.70
2018-08-11T07:24:13.780Z,83.40
2018-08-11T07:26:47.905Z,83.80
2018-08-11T07:29:21.771Z,83.50
2018-08-11T07:31:55.744Z,82.80
2018-08-11T07:34:30.118Z,82.90
2018-08-11T07:37:04.609Z,81.90
2018-08-11T07:39:38.669Z,81.30
2018-08-11T07:42:12.932Z,80.40
2018-08-11T07:44:46.844Z,81.20
2018-08-11T07:47:21.010Z,79.80
2018-08-11T07:49:55.130Z,78.10
2018-08-11T07:52:29.535Z,77.40
2018-08-11T07:55:04.789Z,78.50
2018-08-11T07:57:38.650Z,78.10
2018-08-11T08:00:12.656Z,77.20
2018-08-11T08:02:46.811Z,76.30
2018-08-11T08:05:20.974Z,76.10
2018-08-11T08:07:55.097Z,76.80
2018-08-11T08:10:29.696Z,77.10
2018-08-11T08:13:03.861Z,77.50
2018-08-11T08:15:38.206Z,78.50
2018-08-11T08:18:12.398Z,79.60
2018-08-11T08:20:46.315Z,80.90
2018-08-11T08:23:20.372Z,80.40
2018-08-11T08:25:54.520Z,79.90
2018-08-11T08:28:28.477Z,77.20
2018-08-11T08:31:02.564Z,72.90
2018-08-11T08:33:36.690Z,73.10
2018-08-11T08:36:10.870Z,72.50
2018-08-11T08:38:44.911Z,71.30
2018-08-11T08:41:19.599Z,72.60
2018-08-11T08:43:53.561Z,72.60
2018-08-11T08:46:27.444Z,71.60
2018-08-11T08:49:01.481Z,70.10
2018-08-11T08:51:35.450Z,70.20
2018-08-11T08:54:09.691Z,69.40
2018-08-11T08:56:43.758Z,69.40
2018-08-11T08:59:17.842Z,70.10
2018-08-11T09:01:51.915Z,68.70
2018-08-11T09:04:25.916Z,68.60
2018-08-11T09:06:59.806Z,66.40
2018-08-11T09:09:33.795Z,65.30
2018-08-11T09:12:07.975Z,65.30
2018-08-11T09:14:42.131Z,64.60
2018-08-11T09:17:16.341Z,64.40
2018-08-11T09:19:50.395Z,66.20
2018-08-11T09:22:24.580Z,66.90
2018-08-11T09:24:58.590Z,67.60
2018-08-11T09:27:33.325Z,66.10
2018-08-11T09:30:07.781Z,64.80
2018-08-11T09:32:42.116Z,63.80
2018-08-11T09:35:16.061Z,63.10
2018-08-11T09:37:50.247Z,62.10
2018-08-11T09:40:24.661Z,59.90
2018-08-11T09:42:58.837Z,58.80
2018-08-11T09:45:32.914Z,57.60
2018-08-11T09:48:10.484Z,57.70
2018-08-11T09:50:44.266Z,57.00
2018-08-11T09:53:18.291Z,57.20
2018-08-11T09:55:52.320Z,58.40
2018-08-11T09:58:27.079Z,58.90
2018-08-11T10:01:06.773Z,57.20
2018-08-11T10:03:41.003Z,56.40
2018-08-11T10:06:15.166Z,57.60
2018-08-11T10:08:49.429Z,55.90
2018-08-11T10:11:23.461Z,55.80
2018-08-11T10:13:58.309Z,54.90
2018-08-11T10:16:32.666Z,53.80
2018-08-11T10:19:07.475Z,54.50
2018-08-11T10:21:41.752Z,55.30
2018-08-11T10:24:16.881Z,54.50
2018-08-11T10:26:51.391Z,54.00
2018-08-11T10:29:30.880Z,53.70
2018-08-11T10:32:05.077Z,53.60
2018-08-11T10:34:39.204Z,53.90
2018-08-11T10:37:13.316Z,52.40
2018-08-11T10:39:47.706Z,52.80
2018-08-11T10:42:21.614Z,52.60
2018-08-11T10:44:55.926Z,51.40
2018-08-11T10:47:30.342Z,51.70
2018-08-11T10:50:04.824Z,52.10
2018-08-11T10:52:38.721Z,52.90
2018-08-11T10:55:12.940Z,53.80
2018-08-11T10:57:47.152Z,52.20
2018-08-11T11:00:21.219Z,53.20
2018-08-11T11:02:55.356Z,52.80
2018-08-11T11:05:29.382Z,52.40
2018-08-11T11:08:04.857Z,52.50
2018-08-11T11:10:38.837Z,51.80
2018-08-11T11:13:13.426Z,53.90
2018-08-11T11:15:47.996Z,52.60
2018-08-11T11:18:22.367Z,52.80
2018-08-11T11:20:56.404Z,52.10
2018-08-11T11:23:30.834Z,52.00
2018-08-11T11:26:05.076Z,50.70
2018-08-11T11:28:39.148Z,51.10
2018-08-11T11:31:13.175Z,50.00
2018-08-11T11:33:47.659Z,49.20
2018-08-11T11:36:22.135Z,49.80
2018-08-11T11:38:57.565Z,49.40
2018-08-11T11:41:32.041Z,50.50
2018-08-11T11:44:06.560Z,49.20
2018-08-11T11:46:41.207Z,48.60
2018-08-11T11:49:15.366Z,49.20
2018-08-11T11:51:49.604Z,50.30
2018-08-11T11:54:24.110Z,50.20
2018-08-11T11:56:57.945Z,49.60
2018-08-11T11:59:32.373Z,47.90
2018-08-11T12:02:06.935Z,48.70
2018-08-11T12:04:40.956Z,49.50
2018-08-11T12:07:15.119Z,49.40
2018-08-11T12:09:49.519Z,49.70
2018-08-11T12:12:24.229Z,49.40
2018-08-11T12:14:58.295Z,49.30
2018-08-11T12:17:32.553Z,48.90
2018-08-11T12:20:06.612Z,47.50
2018-08-11T12:22:41.096Z,47.60
2018-08-11T12:25:15.192Z,48.70
2018-08-11T12:27:49.705Z,48.80
2018-08-11T12:30:23.633Z,48.20
2018-08-11T12:32:57.845Z,47.00
2018-08-11T12:35:31.799Z,46.40
2018-08-11T12:38:06.113Z,46.60
2018-08-11T12:40:40.161Z,44.70
2018-08-11T12:43:14.218Z,44.70
2018-08-11T12:45:48.227Z,45.00
2018-08-11T12:48:22.556Z,44.80
2018-08-11T12:50:56.769Z,45.20
2018-08-11T12:53:30.750Z,44.90
2018-08-11T12:56:05.051Z,45.60
2018-08-11T12:58:39.152Z,44.20
2018-08-11T13:01:17.863Z,44.00
2018-08-11T13:03:51.964Z,44.70
2018-08-11T13:06:26.031Z,44.60
2018-08-11T13:09:00.186Z,45.80
2018-08-11T13:11:34.578Z,45.90
2018-08-11T13:14:08.563Z,44.40
2018-08-11T13:16:42.774Z,43.40
2018-08-11T13:19:17.175Z,44.30
2018-08-11T13:21:51.671Z,43.40
2018-08-11T13:24:26.582Z,43.20
2018-08-11T13:27:01.516Z,43.50
2018-08-11T13:29:35.440Z,44.00
2018-08-11T13:32:09.730Z,44.70
2018-08-11T13:34:43.731Z,44.80
2018-08-11T13:37:17.934Z,45.20
2018-08-11T13:39:52.397Z,45.30
2018-08-11T13:42:27.361Z,46.60
2018-08-11T13:45:01.712Z,46.10
2018-08-11T13:47:35.841Z,46.00
2018-08-11T13:50:09.959Z,45.00
2018-08-11T13:52:44.220Z,44.70
2018-08-11T13:55:18.119Z,42.70
2018-08-11T13:57:52.136Z,42.10
2018-08-11T14:00:26.145Z,41.10
2018-08-11T14:03:00.536Z,41.80
2018-08-11T14:05:34.603Z,41.80
2018-08-11T14:08:08.831Z,39.90
2018-08-11T14:10:43.217Z,40.70
2018-08-11T14:13:17.556Z,42.10
2018-08-11T14:15:51.769Z,42.00
2018-08-11T14:18:26.225Z,42.60
2018-08-11T14:21:00.402Z,42.20
2018-08-11T14:23:35.251Z,41.70
2018-08-11T14:26:09.400Z,42.40
2018-08-11T14:28:43.383Z,39.70
2018-08-11T14:31:17.360Z,39.50
2018-08-11T14:33:51.562Z,39.10
2018-08-11T14:36:25.616Z,39.30
2018-08-11T14:38:59.720Z,39.10
2018-08-11T14:41:34.388Z,39.80
2018-08-11T14:44:08.628Z,38.30
2018-08-11T14:46:42.884Z,37.90
2018-08-11T14:49:17.029Z,38.60
2018-08-11T14:51:51.152Z,39.80
2018-08-11T14:54:25.376Z,37.90
2018-08-11T14:56:59.453Z,36.40
2018-08-11T14:59:33.367Z,37.20
2018-08-11T15:02:08.415Z,38.10
2018-08-11T15:04:42.949Z,38.90
2018-08-11T15:07:17.034Z,40.00
2018-08-11T15:09:51.138Z,41.10
2018-08-11T15:12:25.335Z,41.40
2018-08-11T15:14:59.643Z,41.10
2018-08-11T15:17:33.991Z,42.10
2018-08-11T15:20:08.918Z,41.80
2018-08-11T15:22:42.907Z,42.30
2018-08-11T15:25:16.869Z,41.80
2018-08-11T15:27:50.725Z,41.30
2018-08-11T15:30:24.978Z,41.50
2018-08-11T15:32:59.368Z,41.70
2018-08-11T15:35:33.530Z,40.60
2018-08-11T15:38:07.814Z,40.20
2018-08-11T15:40:42.093Z,39.90
2018-08-11T15:43:16.470Z,40.10
2018-08-11T15:45:50.555Z,40.20
2018-08-11T15:48:24.609Z,39.30
2018-08-11T15:50:58.862Z,39.20
2018-08-11T15:53:33.087Z,39.70
2018-08-11T15:56:07.479Z,39.50
2018-08-11T15:58:42.245Z,39.30
2018-08-11T16:01:16.522Z,39.00
2018-08-11T16:03:51.487Z,40.00
2018-08-11T16:06:26.907Z,40.80
2018-08-11T16:09:01.360Z,39.70
2018-08-11T16:11:35.915Z,37.90
2018-08-11T16:14:10.886Z,36.50
2018-08-11T16:16:45.491Z,36.60
2018-08-11T16:19:21.120Z,35.30
2018-08-11T16:21:56.200Z,35.80
2018-08-11T16:24:30.182Z,35.10
2018-08-11T16:27:08.369Z,33.50
2018-08-11T16:29:43.221Z,34.10
2018-08-11T16:32:18.281Z,35.30
2018-08-11T16:34:52.571Z,33.80
2018-08-11T16:37:26.605Z,32.30
2018-08-11T16:40:01.294Z,30.50
2018-08-11T16:42:35.985Z,28.20
2018-08-11T16:45:10.709Z,27.10
2018-08-11T16:47:45.156Z,25.90
2018-08-11T16:50:19.600Z,26.10
2018-08-11T16:52:54.969Z,26.30
2018-08-11T16:55:29.467Z,27.80
2018-08-11T16:58:04.237Z,28.30
2018-08-11T17:00:39.679Z,30.00
2018-08-11T17:03:14.175Z,31.10
2018-08-11T17:05:49.117Z,33.50
2018-08-11T17:08:23.154Z,33.30
2018-08-11T17:10:57.617Z,33.70
2018-08-11T17:13:32.906Z,35.00
2018-08-11T17:16:07.093Z,35.70
2018-08-11T17:18:41.019Z,36.60
2018-08-11T17:21:14.975Z,37.00
2018-08-11T17:23:49.164Z,37.20
2018-08-11T17:26:24.380Z,37.50
2018-08-11T17:28:59.000Z,37.70
2018-08-11T17:31:33.340Z,37.70
2018-08-11T17:34:07.694Z,38.50
2018-08-11T17:36:41.877Z,38.80
2018-08-11T17:39:16.500Z,38.70
2018-08-11T17:41:51.757Z,39.10
2018-08-11T17:44:26.871Z,39.80
2018-08-11T17:47:01.165Z,40.10
2018-08-11T17:49:36.091Z,40.90
2018-08-11T17:52:10.299Z,41.60
2018-08-11T17:54:44.714Z,41.10
2018-08-11T17:57:20.270Z,41.30
2018-08-11T17:59:54.526Z,42.30
2018-08-11T18:02:28.676Z,42.30
2018-08-11T18:05:03.351Z,41.90
2018-08-11T18:07:38.395Z,42.40
2018-08-11T18:10:12.750Z,43.20
2018-08-11T18:12:47.366Z,43.50
2018-08-11T18:15:22.839Z,43.20
2018-08-11T18:17:57.183Z,44.10
2018-08-11T18:20:31.669Z,43.70
2018-08-11T18:23:06.598Z,43.80
2018-08-11T18:25:40.695Z,43.50
2018-08-11T18:28:15.845Z,43.80
2018-08-11T18:30:50.231Z,45.20
2018-08-11T18:33:24.728Z,44.70
2018-08-11T18:35:59.210Z,44.70
2018-08-11T18:38:33.151Z,45.30
2018-08-11T18:41:07.324Z,45.80
2018-08-11T18:43:41.707Z,45.50
2018-08-11T18:46:17.318Z,46.90
2018-08-11T18:48:51.975Z,47.30
2018-08-11T18:51:26.432Z,46.50
2018-08-11T18:54:00.805Z,47.60
2018-08-11T18:56:35.758Z,48.50
2018-08-11T18:59:10.256Z,49.00
2018-08-11T19:01:45.270Z,50.30
2018-08-11T19:04:20.296Z,50.20
2018-08-11T19:06:55.407Z,50.70
2018-08-11T19:09:30.404Z,52.20
2018-08-11T19:12:04.626Z,52.70
2018-08-11T19:14:39.706Z,53.80
2018-08-11T19:17:14.002Z,53.40
2018-08-11T19:19:48.957Z,53.90
2018-08-11T19:22:23.495Z,54.80
2018-08-11T19:24:58.047Z,55.80
2018-08-11T19:27:32.969Z,55.90
2018-08-11T19:30:09.108Z,56.30
2018-08-11T19:32:43.911Z,56.90
2018-08-11T19:35:17.834Z,57.30
2018-08-11T19:37:52.207Z,57.70
2018-08-11T19:40:27.188Z,58.70
2018-08-11T19:43:01.626Z,58.90
2018-08-11T19:45:36.009Z,59.60
2018-08-11T19:48:10.239Z,59.50
2018-08-11T19:50:44.863Z,60.30
2018-08-11T19:53:20.123Z,60.20
2018-08-11T19:55:54.073Z,60.50
2018-08-11T19:58:35.169Z,61.10
2018-08-11T20:01:10.209Z,62.00
2018-08-11T20:03:44.303Z,62.30
2018-08-11T20:06:18.554Z,62.50
2018-08-11T20:08:52.695Z,62.90
2018-08-11T20:11:27.347Z,62.90
2018-08-11T20:14:02.155Z,62.70
2018-08-11T20:16:36.735Z,62.30
2018-08-11T20:19:11.404Z,63.50
2018-08-11T20:21:46.709Z,64.50
2018-08-11T20:24:20.952Z,63.80
2018-08-11T20:26:55.335Z,64.40
2018-08-11T20:29:30.195Z,64.80
2018-08-11T20:32:05.048Z,64.90
2018-08-11T20:34:40.191Z,65.60
2018-08-11T20:37:14.688Z,65.20
2018-08-11T20:39:48.720Z,65.30
2018-08-11T20:42:23.605Z,65.30
2018-08-11T20:44:58.473Z,65.80
2018-08-11T20:47:32.959Z,66.40
2018-08-11T20:50:07.433Z,66.70
2018-08-11T20:52:41.768Z,67.10
2018-08-11T20:55:16.139Z,67.90
2018-08-11T20:57:50.597Z,67.60
2018-08-11T21:00:25.236Z,68.10
2018-08-11T21:03:00.180Z,68.70
2018-08-11T21:05:35.126Z,68.90
2018-08-11T21:08:10.014Z,69.20
2018-08-11T21:10:45.659Z,69.10
2018-08-11T21:13:20.613Z,69.40
2018-08-11T21:15:55.155Z,69.60
2018-08-11T21:18:30.254Z,69.70
2018-08-11T21:21:04.940Z,70.20
2018-08-11T21:23:39.117Z,70.30
2018-08-11T21:26:13.835Z,71.10
2018-08-11T21:28:48.879Z,71.50
2018-08-11T21:31:23.239Z,71.80
2018-08-11T21:33:57.841Z,72.00
2018-08-11T21:36:32.109Z,72.50
2018-08-11T21:39:10.113Z,72.80
2018-08-11T21:41:44.287Z,73.60
2018-08-11T21:44:18.598Z,73.40
2018-08-11T21:46:53.570Z,74.20
2018-08-11T21:49:28.326Z,74.50
2018-08-11T21:52:02.589Z,74.60
2018-08-11T21:54:37.473Z,74.20
2018-08-11T21:57:12.540Z,74.30
2018-08-11T21:59:46.967Z,74.70
2018-08-11T22:02:21.304Z,75.10
2018-08-11T22:04:55.357Z,75.30
2018-08-11T22:07:30.355Z,75.90
2018-08-11T22:10:05.103Z,76.10
2018-08-11T22:12:39.459Z,76.70
2018-08-11T22:15:15.937Z,77.40
2018-08-11T22:17:50.527Z,77.70
2018-08-11T22:20:25.518Z,77.80
2018-08-11T22:22:59.639Z,78.20
2018-08-11T22:25:33.982Z,78.30
2018-08-11T22:28:08.486Z,78.40
2018-08-11T22:30:43.977Z,78.60
2018-08-11T22:33:18.312Z,79.20
2018-08-11T22:35:53.356Z,79.70
2018-08-11T22:38:27.939Z,79.90
2018-08-11T22:41:02.546Z,79.90
2018-08-11T22:43:36.631Z,80.30
2018-08-11T22:46:11.404Z,80.00
2018-08-11T22:48:46.189Z,80.40
2018-08-11T22:51:20.548Z,80.30
2018-08-11T22:53:54.667Z,80.80
2018-08-11T22:56:28.988Z,81.70
2018-08-11T22:59:03.213Z,81.90
2018-08-11T23:01:37.311Z,82.00
2018-08-11T23:04:12.045Z,82.40
2018-08-11T23:06:46.365Z,82.10
2018-08-11T23:09:20.515Z,82.00
2018-08-11T23:11:55.300Z,82.00
2018-08-11T23:14:29.645Z,82.50
2018-08-11T23:17:04.225Z,82.40
2018-08-11T23:19:38.285Z,82.10
2018-08-11T23:22:12.614Z,82.40
2018-08-11T23:24:46.844Z,82.80
2018-08-11T23:27:21.996Z,83.00
2018-08-11T23:29:56.938Z,83.00
2018-08-11T23:32:30.999Z,83.20
2018-08-11T23:35:06.044Z,83.60
2018-08-11T23:37:40.890Z,83.50
2018-08-11T23:40:15.613Z,83.50
2018-08-11T23:42:49.873Z,83.70
2018-08-11T23:45:24.105Z,83.60
2018-08-11T23:47:58.526Z,83.40
2018-08-11T23:50:33.879Z,83.90
2018-08-11T23:53:08.603Z,84.50
2018-08-11T23:55:42.829Z,84.60
2018-08-11T23:58:18.199Z,84.70
